Time;durP1;ratioP1;P1;durP2;ratioP2;P2;SDS_P1;SDS_P2;PMS_P1;PMS_P2;Temp;Humidity;BMP_temperature;BMP_pressure;BME280_temperature;BME280_humidity;BME280_pressure;Samples;Min_cycle;Max_cycle;Signal;HPM_P1;HPM_P2
2023/04/03 00:02:02;;;;;;;;;;;;;;;7.78;71.57;102677.88;7356051;19;20128;-64
2023/04/03 00:04:29;;;;;;;;;;;;;;;7.78;71.82;102681.34;7356349;19;19926;-65
2023/04/03 00:06:56;;;;;;;;;;;;;;;7.80;71.61;102687.38;7355280;19;20006;-64
2023/04/03 00:09:23;;;;;;;;;;;;;;;7.82;72.19;102682.88;7355308;19;19923;-64
2023/04/03 00:11:50;;;;;;;;;;;;;;;7.83;71.30;102678.47;7357150;19;19926;-66
2023/04/03 00:14:17;;;;;;;;;;;;;;;7.81;72.19;102677.72;7355550;19;19918;-64
2023/04/03 00:16:44;;;;;;;;;;;;;;;7.78;72.48;102681.34;7351920;19;20559;-64
2023/04/03 00:19:12;;;;;;;;;;;;;;;7.73;72.62;102681.63;7353246;19;20510;-66
2023/04/03 00:21:39;;;;;;;;;;;;;;;7.72;72.38;102676.47;7354760;19;20788;-65
2023/04/03 00:24:06;;;;;;;;;;;;;;;7.72;72.72;102674.69;7357361;19;20474;-65
2023/04/03 00:26:33;;;;;;;;;;;;;;;7.68;72.60;102674.97;7353574;19;19926;-65
2023/04/03 00:29:00;;;;;;;;;;;;;;;7.71;72.00;102674.81;7357173;19;19923;-66
2023/04/03 00:31:27;;;;;;;;;;;;;;;7.72;72.45;102676.47;7355502;19;19929;-66
2023/04/03 00:33:54;;;;;;;;;;;;;;;7.70;72.64;102670.50;7354915;19;19922;-65
2023/04/03 00:36:21;;;;;;;;;;;;;;;7.67;72.99;102670.66;7351843;19;20167;-65
2023/04/03 00:38:48;;;;;;;;;;;;;;;7.63;72.94;102667.38;7356025;19;21786;-64
2023/04/03 00:41:15;;;;;;;;;;;;;;;7.53;72.81;102660.97;7354090;19;19915;-65
2023/04/03 00:43:41;;;;;;;;;;;;;;;7.51;73.98;102664.63;7353169;19;20345;-65
2023/04/03 00:46:08;;;;;;;;;;;;;;;7.46;73.60;102659.66;7350181;19;19927;-65
2023/04/03 00:48:40;;;;;;;;;;;;;;;7.45;73.49;102659.72;7352939;19;20010;-65
2023/04/03 00:51:09;;;;;;;;;;;;;;;7.44;73.96;102661.50;7354907;19;19914;-65
2023/04/03 00:53:40;;;;;;;;;;;;;;;7.42;73.92;102657.25;7357347;19;20336;-64
2023/04/03 00:56:10;;;;;;;;;;;;;;;7.39;74.10;102662.69;7351227;19;19925;-66
2023/04/03 00:58:39;;;;;;;;;;;;;;;7.36;74.17;102655.88;7355396;19;19922;-64
2023/04/03 01:01:12;;;;;;;;;;;;;;;7.34;75.05;102646.38;7350705;19;21362;-65
2023/04/03 01:03:39;;;;;;;;;;;;;;;7.35;74.75;102651.56;7354423;19;19923;-65
2023/04/03 01:06:06;;;;;;;;;;;;;;;7.32;74.09;102651.72;7352233;19;19941;-64
2023/04/03 01:08:33;;;;;;;;;;;;;;;7.20;74.24;102653.25;7352356;19;19919;-64
2023/04/03 01:11:00;;;;;;;;;;;;;;;7.18;74.62;102656.88;7355109;19;19923;-63
2023/04/03 01:13:29;;;;;;;;;;;;;;;7.14;75.07;102658.84;7355322;19;20166;-64
2023/04/03 01:15:57;;;;;;;;;;;;;;;7.09;75.05;102655.63;7349918;19;20360;-64
2023/04/03 01:18:24;;;;;;;;;;;;;;;7.08;76.09;102660.94;7355896;19;19918;-66
2023/04/03 01:21:01;;;;;;;;;;;;;;;7.09;75.47;102647.78;7355790;19;20347;-65
2023/04/03 01:23:37;;;;;;;;;;;;;;;7.10;75.72;102649.47;7357632;19;19927;-64
2023/04/03 01:26:05;;;;;;;;;;;;;;;7.11;76.70;102650.31;7351967;19;19925;-64
2023/04/03 01:28:33;;;;;;;;;;;;;;;7.09;76.75;102650.38;7352586;19;19915;-66
2023/04/03 01:31:00;;;;;;;;;;;;;;;7.11;76.41;102650.31;7352474;19;19929;-66
2023/04/03 01:33:27;;;;;;;;;;;;;;;7.10;75.98;102648.63;7354476;19;20301;-65
2023/04/03 01:35:54;;;;;;;;;;;;;;;7.12;76.45;102651.97;7350692;19;20301;-64
2023/04/03 01:38:21;;;;;;;;;;;;;;;7.09;75.73;102645.16;7352723;19;19926;-65
2023/04/03 01:40:48;;;;;;;;;;;;;;;7.11;75.31;102639.84;7352838;19;19933;-64
2023/04/03 01:43:15;;;;;;;;;;;;;;;7.09;75.58;102653.00;7352105;19;19919;-65
2023/04/03 01:45:41;;;;;;;;;;;;;;;7.06;75.43;102641.88;7350291;19;20487;-64
2023/04/03 01:48:08;;;;;;;;;;;;;;;7.07;75.91;102649.63;7348565;19;19921;-65
2023/04/03 01:50:35;;;;;;;;;;;;;;;7.03;76.22;102639.41;7354457;19;20372;-66
2023/04/03 01:53:05;;;;;;;;;;;;;;;7.04;75.66;102641.94;7351787;19;19930;-65
2023/04/03 01:55:32;;;;;;;;;;;;;;;6.96;75.72;102640.69;7351287;19;19934;-64
2023/04/03 01:57:59;;;;;;;;;;;;;;;6.87;75.92;102637.63;7348515;19;19921;-65
2023/04/03 02:00:26;;;;;;;;;;;;;;;6.84;76.72;102635.19;7354086;19;19923;-67
2023/04/03 02:02:53;;;;;;;;;;;;;;;6.84;76.90;102637.81;7352214;19;20260;-66
2023/04/03 02:05:20;;;;;;;;;;;;;;;6.81;76.86;102631.88;7349410;19;20333;-70
2023/04/03 02:07:47;;;;;;;;;;;;;;;6.80;77.37;102632.84;7350452;19;20210;-67
2023/04/03 02:10:14;;;;;;;;;;;;;;;6.80;77.09;102635.44;7353496;19;19922;-64
2023/04/03 02:12:41;;;;;;;;;;;;;;;6.77;76.73;102633.00;7353405;19;19922;-65
2023/04/03 02:15:08;;;;;;;;;;;;;;;6.77;76.88;102640.84;7349504;19;19946;-65
2023/04/03 02:17:37;;;;;;;;;;;;;;;6.75;77.41;102638.31;7347129;19;19943;-66
2023/04/03 02:20:04;;;;;;;;;;;;;;;6.76;77.58;102641.75;7355748;19;20530;-64
2023/04/03 02:22:31;;;;;;;;;;;;;;;6.74;78.08;102638.41;7353331;19;20204;-65
2023/04/03 02:24:58;;;;;;;;;;;;;;;6.72;78.10;102637.63;7350685;19;19915;-64
2023/04/03 02:27:25;;;;;;;;;;;;;;;6.74;76.93;102636.63;7354612;19;19940;-65
2023/04/03 02:29:52;;;;;;;;;;;;;;;6.74;77.25;102635.78;7359127;19;19926;-64
2023/04/03 02:32:19;;;;;;;;;;;;;;;6.72;78.02;102632.41;7355719;19;19930;-67
2023/04/03 02:34:46;;;;;;;;;;;;;;;6.70;78.06;102634.25;7358201;19;19933;-65
2023/04/03 02:37:12;;;;;;;;;;;;;;;6.70;78.20;102629.03;7353443;19;19922;-65
2023/04/03 02:39:39;;;;;;;;;;;;;;;6.69;78.26;102635.19;7359416;19;19931;-65
2023/04/03 02:42:07;;;;;;;;;;;;;;;6.63;77.96;102625.91;7351099;19;19915;-64
2023/04/03 02:44:34;;;;;;;;;;;;;;;6.63;78.49;102625.91;7358953;19;20368;-64
2023/04/03 02:47:00;;;;;;;;;;;;;;;6.64;78.75;102616.28;7353849;19;19911;-65
2023/04/03 02:49:27;;;;;;;;;;;;;;;6.66;78.11;102625.72;7357771;19;20506;-65
2023/04/03 02:51:54;;;;;;;;;;;;;;;6.65;78.29;102629.28;7356576;19;19978;-66
2023/04/03 02:54:23;;;;;;;;;;;;;;;6.64;78.79;102618.91;7355384;19;19919;-64
2023/04/03 02:56:50;;;;;;;;;;;;;;;6.66;77.92;102620.50;7354203;19;19934;-64
2023/04/03 02:59:17;;;;;;;;;;;;;;;6.63;77.58;102622.44;7356553;19;19918;-64
2023/04/03 03:01:44;;;;;;;;;;;;;;;6.62;77.75;102623.34;7354054;19;19922;-66
2023/04/03 03:04:11;;;;;;;;;;;;;;;6.60;78.12;102620.84;7353428;19;20356;-65
2023/04/03 03:06:38;;;;;;;;;;;;;;;6.60;77.90;102623.47;7358604;19;20452;-66
2023/04/03 03:09:05;;;;;;;;;;;;;;;6.56;78.41;102619.28;7358142;19;20264;-65
2023/04/03 03:11:32;;;;;;;;;;;;;;;6.53;78.52;102609.00;7358954;19;20192;-65
2023/04/03 03:13:59;;;;;;;;;;;;;;;6.53;79.06;102611.63;7354502;19;20359;-64
2023/04/03 03:16:26;;;;;;;;;;;;;;;6.46;78.61;102612.88;7354277;19;21212;-65
2023/04/03 03:18:53;;;;;;;;;;;;;;;6.44;79.03;102612.97;7355909;19;19956;-66
2023/04/03 03:21:20;;;;;;;;;;;;;;;6.47;79.43;102613.72;7358252;19;19929;-65
2023/04/03 03:23:47;;;;;;;;;;;;;;;6.44;79.29;102612.97;7358091;19;19930;-66
2023/04/03 03:26:14;;;;;;;;;;;;;;;6.43;78.43;102613.06;7358815;19;19926;-63
2023/04/03 03:28:41;;;;;;;;;;;;;;;6.42;78.22;102608.75;7358803;19;19922;-65
2023/04/03 03:31:08;;;;;;;;;;;;;;;6.41;78.81;102612.28;7358395;19;19926;-64
2023/04/03 03:33:35;;;;;;;;;;;;;;;6.38;79.52;102612.44;7359196;19;20813;-65
2023/04/03 03:36:02;;;;;;;;;;;;;;;6.37;78.71;102606.38;7351159;19;19919;-64
2023/04/03 03:38:29;;;;;;;;;;;;;;;6.35;78.18;102610.81;7361725;19;19915;-64
2023/04/03 03:40:56;;;;;;;;;;;;;;;6.31;78.48;102609.31;7359636;19;19915;-64
2023/04/03 03:43:23;;;;;;;;;;;;;;;6.27;79.77;102606.94;7359908;19;19921;-65
2023/04/03 03:45:51;;;;;;;;;;;;;;;6.22;79.58;102607.19;7354326;19;19918;-64
2023/04/03 03:48:19;;;;;;;;;;;;;;;6.24;81.64;102605.34;7356058;19;19926;-65
2023/04/03 03:50:46;;;;;;;;;;;;;;;6.25;79.96;102598.31;7358481;19;19937;-65
2023/04/03 03:53:13;;;;;;;;;;;;;;;6.27;79.43;102602.56;7355869;19;20318;-64
2023/04/03 03:55:40;;;;;;;;;;;;;;;6.27;79.07;102601.72;7355067;19;20424;-64
2023/04/03 03:58:07;;;;;;;;;;;;;;;6.23;79.18;102601.03;7355407;19;19911;-65
2023/04/03 04:00:34;;;;;;;;;;;;;;;6.18;79.81;102596.97;7355167;19;19922;-64
2023/04/03 04:03:01;;;;;;;;;;;;;;;6.16;79.20;102589.22;7355898;19;19918;-65
2023/04/03 04:05:29;;;;;;;;;;;;;;;6.14;79.35;102598.91;7358060;19;20556;-67
2023/04/03 04:07:55;;;;;;;;;;;;;;;6.11;79.36;102600.81;7357013;19;21597;-66
2023/04/03 04:10:23;;;;;;;;;;;;;;;6.11;80.70;102598.22;7357640;19;20191;-64
2023/04/03 04:12:51;;;;;;;;;;;;;;;6.05;80.71;102596.75;7360364;19;20317;-65
2023/04/03 04:15:18;;;;;;;;;;;;;;;6.07;80.30;102589.69;7354333;19;19932;-64
2023/04/03 04:17:45;;;;;;;;;;;;;;;6.09;80.36;102594.84;7350227;19;19945;-65
2023/04/03 04:20:12;;;;;;;;;;;;;;;6.10;79.87;102593.91;7355314;19;19944;-65
2023/04/03 04:22:39;;;;;;;;;;;;;;;6.11;79.91;102599.06;7356202;19;20143;-64
2023/04/03 04:25:06;;;;;;;;;;;;;;;6.12;79.82;102602.50;7355067;19;19934;-64
2023/04/03 04:27:32;;;;;;;;;;;;;;;6.09;80.14;102598.31;7351353;19;19922;-64
2023/04/03 04:29:59;;;;;;;;;;;;;;;6.08;79.96;102601.84;7354421;19;19918;-66
2023/04/03 04:32:26;;;;;;;;;;;;;;;6.05;80.22;102595.91;7351295;19;19911;-65
2023/04/03 04:34:53;;;;;;;;;;;;;;;6.04;80.40;102595.09;7350743;19;19921;-65
2023/04/03 04:37:20;;;;;;;;;;;;;;;6.07;80.31;102601.91;7352319;19;19927;-65
2023/04/03 04:39:47;;;;;;;;;;;;;;;6.10;79.79;102599.13;7355876;19;20019;-63
2023/04/03 04:42:16;;;;;;;;;;;;;;;6.09;80.26;102598.31;7354505;19;19927;-64
2023/04/03 04:44:43;;;;;;;;;;;;;;;6.11;80.37;102599.06;7353873;19;19918;-64
2023/04/03 04:47:13;;;;;;;;;;;;;;;6.14;80.69;102601.53;7345957;19;19922;-64
2023/04/03 04:49:40;;;;;;;;;;;;;;;6.16;80.43;102597.03;7354390;19;19945;-65
2023/04/03 04:52:07;;;;;;;;;;;;;;;6.16;80.28;102598.81;7354579;19;19947;-65
2023/04/03 04:54:34;;;;;;;;;;;;;;;6.18;81.21;102599.59;7355957;19;20011;-64
2023/04/03 04:57:01;;;;;;;;;;;;;;;6.18;81.16;102597.81;7352588;19;19919;-64
2023/04/03 04:59:28;;;;;;;;;;;;;;;6.16;80.59;102590.97;7352588;19;20316;-66
2023/04/03 05:01:54;;;;;;;;;;;;;;;6.20;81.21;102597.72;7350449;19;19926;-64
2023/04/03 05:04:21;;;;;;;;;;;;;;;6.24;81.38;102605.34;7353004;19;19975;-64
2023/04/03 05:06:48;;;;;;;;;;;;;;;6.26;80.79;102598.25;7354914;19;19979;-63
2023/04/03 05:09:15;;;;;;;;;;;;;;;6.26;80.27;102598.25;7355038;19;19926;-70
2023/04/03 05:11:42;;;;;;;;;;;;;;;6.32;80.85;102597.09;7352911;19;19950;-63
2023/04/03 05:14:09;;;;;;;;;;;;;;;6.35;80.71;102602.97;7351745;19;19939;-65
2023/04/03 05:16:36;;;;;;;;;;;;;;;6.35;79.55;102596.91;7347064;19;19915;-65
2023/04/03 05:19:03;;;;;;;;;;;;;;;6.34;79.68;102603.94;7353892;19;20525;-64
2023/04/03 05:21:32;;;;;;;;;;;;;;;6.38;79.71;102604.59;7355152;19;20362;-64
2023/04/03 05:24:02;;;;;;;;;;;;;;;6.39;79.65;102604.53;7354417;19;20331;-64
2023/04/03 05:26:30;;;;;;;;;;;;;;;6.39;79.55;102603.69;7351935;19;19959;-64
2023/04/03 05:28:58;;;;;;;;;;;;;;;6.36;79.27;102614.28;7353644;19;19921;-65
2023/04/03 05:31:24;;;;;;;;;;;;;;;6.36;79.56;102606.44;7353518;19;20333;-65
2023/04/03 05:33:51;;;;;;;;;;;;;;;6.40;79.01;102602.72;7349988;19;19930;-65
2023/04/03 05:36:18;;;;;;;;;;;;;;;6.42;78.61;102613.97;7350201;19;19986;-66
2023/04/03 05:38:45;;;;;;;;;;;;;;;6.41;78.47;102614.88;7352477;19;19927;-64
2023/04/03 05:41:13;;;;;;;;;;;;;;;6.42;79.91;102619.19;7353140;19;19915;-64
2023/04/03 05:43:40;;;;;;;;;;;;;;;6.43;79.78;102606.06;7349615;19;20705;-64
2023/04/03 05:46:09;;;;;;;;;;;;;;;6.40;79.86;102619.28;7349536;19;19934;-64
2023/04/03 05:48:36;;;;;;;;;;;;;;;6.49;78.71;102615.34;7348883;19;20572;-65
2023/04/03 05:51:04;;;;;;;;;;;;;;;6.47;78.42;102618.94;7351898;19;20298;-65
2023/04/03 05:53:33;;;;;;;;;;;;;;;6.48;78.04;102618.88;7352851;19;19919;-65
2023/04/03 05:55:59;;;;;;;;;;;;;;;6.47;79.79;102617.19;7350847;19;19930;-65
2023/04/03 05:58:26;;;;;;;;;;;;;;;6.47;80.37;102617.19;7352842;19;19925;-66
2023/04/03 06:00:53;;;;;;;;;;;;;;;6.44;79.43;102618.22;7361788;19;19931;-65
2023/04/03 06:03:21;;;;;;;;;;;;;;;6.51;78.49;102620.47;7364494;19;19929;-66
2023/04/03 06:05:48;;;;;;;;;;;;;;;6.48;78.70;102615.41;7363448;19;20364;-65
2023/04/03 06:08:15;;;;;;;;;;;;;;;6.44;79.01;102612.13;7365834;19;19938;-64
2023/04/03 06:10:41;;;;;;;;;;;;;;;6.44;79.80;102618.22;7368369;19;20360;-65
2023/04/03 06:13:08;;;;;;;;;;;;;;;6.48;79.84;102616.25;7368637;19;19923;-65
2023/04/03 06:15:36;;;;;;;;;;;;;;;6.54;79.21;102617.72;7364363;19;20366;-65
2023/04/03 06:18:03;;;;;;;;;;;;;;;6.57;78.86;102622.75;7362496;19;19915;-68
2023/04/03 06:20:31;;;;;;;;;;;;;;;6.60;79.18;102626.06;7364520;19;19990;-66
2023/04/03 06:22:58;;;;;;;;;;;;;;;6.65;79.73;102636.28;7366818;19;19961;-66
2023/04/03 06:25:25;;;;;;;;;;;;;;;6.73;78.72;102626.25;7363433;19;21001;-65
2023/04/03 06:27:52;;;;;;;;;;;;;;;6.67;78.49;102631.78;7365564;19;20596;-65
2023/04/03 06:30:19;;;;;;;;;;;;;;;6.68;79.17;102633.50;7362439;19;19951;-64
2023/04/03 06:32:46;;;;;;;;;;;;;;;6.68;79.10;102644.81;7366933;19;20627;-66
2023/04/03 06:35:13;;;;;;;;;;;;;;;6.71;79.26;102635.94;7362873;19;19923;-66
2023/04/03 06:37:40;;;;;;;;;;;;;;;6.72;78.95;102633.25;7362329;19;19915;-65
2023/04/03 06:40:10;;;;;;;;;;;;;;;6.73;79.85;102641.94;7366419;19;19928;-66
2023/04/03 06:42:37;;;;;;;;;;;;;;;6.77;79.83;102638.22;7367117;19;20339;-65
2023/04/03 06:45:04;;;;;;;;;;;;;;;6.82;79.38;102638.81;7364870;19;20738;-64
2023/04/03 06:47:31;;;;;;;;;;;;;;;6.88;79.67;102641.94;7364921;19;20348;-65
2023/04/03 06:49:58;;;;;;;;;;;;;;;6.96;78.73;102631.03;7367517;19;19923;-65
2023/04/03 06:52:26;;;;;;;;;;;;;;;7.01;78.46;102636.88;7364696;19;19978;-66
2023/04/03 06:54:56;;;;;;;;;;;;;;;7.06;78.43;102629.59;7363180;19;20246;-65
2023/04/03 06:57:24;;;;;;;;;;;;;;;7.08;79.45;102630.38;7363070;19;20345;-65
2023/04/03 06:59:51;;;;;;;;;;;;;;;7.10;78.88;102633.75;7366539;19;20491;-66
2023/04/03 07:02:18;;;;;;;;;;;;;;;7.12;78.49;102636.28;7361507;19;19922;-66
2023/04/03 07:04:45;;;;;;;;;;;;;;;7.15;78.68;102639.59;7366021;19;19916;-66
2023/04/03 07:07:12;;;;;;;;;;;;;;;7.15;78.06;102636.97;7363679;19;20255;-66
2023/04/03 07:09:39;;;;;;;;;;;;;;;7.17;78.38;102642.94;7366240;19;20353;-66
2023/04/03 07:12:07;;;;;;;;;;;;;;;7.18;78.30;102642.03;7356655;19;20328;-63
2023/04/03 07:14:35;;;;;;;;;;;;;;;7.22;79.18;102648.75;7357818;19;19965;-65
2023/04/03 07:17:02;;;;;;;;;;;;;;;7.24;79.60;102646.06;7353791;19;19918;-64
2023/04/03 07:19:29;;;;;;;;;;;;;;;7.32;79.47;102633.38;7358479;19;19919;-64
2023/04/03 07:21:56;;;;;;;;;;;;;;;7.39;79.36;102637.34;7358029;19;20015;-66
2023/04/03 07:24:23;;;;;;;;;;;;;;;7.43;79.41;102630.16;7357809;19;19933;-65
2023/04/03 07:26:51;;;;;;;;;;;;;;;7.50;79.57;102632.34;7355536;19;19930;-66
2023/04/03 07:29:21;;;;;;;;;;;;;;;7.57;78.11;102632.81;7361521;19;20277;-65
2023/04/03 07:31:49;;;;;;;;;;;;;;;7.53;77.83;102644.41;7354901;19;20231;-64
2023/04/03 07:34:16;;;;;;;;;;;;;;;7.51;78.39;102641.91;7354086;19;20651;-65
2023/04/03 07:36:43;;;;;;;;;;;;;;;7.52;78.73;102630.47;7351968;19;19938;-64
2023/04/03 07:39:10;;;;;;;;;;;;;;;7.64;78.63;102645.47;7357331;19;19922;-66
2023/04/03 07:41:38;;;;;;;;;;;;;;;7.80;77.42;102639.34;7349196;19;20324;-64
2023/04/03 07:44:05;;;;;;;;;;;;;;;7.90;78.12;102630.00;7358610;19;19917;-65
2023/04/03 07:46:32;;;;;;;;;;;;;;;7.96;78.37;102630.50;7351494;19;19934;-65
2023/04/03 07:48:59;;;;;;;;;;;;;;;8.01;78.63;102631.06;7357439;19;19910;-66
2023/04/03 07:51:28;;;;;;;;;;;;;;;7.96;77.22;102624.41;7357524;19;19922;-66
2023/04/03 07:53:55;;;;;;;;;;;;;;;7.99;77.33;102630.31;7353620;19;20245;-66
2023/04/03 07:56:22;;;;;;;;;;;;;;;8.02;77.47;102630.16;7355177;19;19991;-65
2023/04/03 07:58:49;;;;;;;;;;;;;;;8.10;77.67;102642.78;7350257;19;20312;-67
2023/04/03 08:01:16;;;;;;;;;;;;;;;8.19;77.73;102642.22;7343507;19;19922;-65
2023/04/03 08:03:44;;;;;;;;;;;;;;;8.36;78.04;102642.09;7347181;19;19918;-66
2023/04/03 08:06:11;;;;;;;;;;;;;;;8.74;77.18;102646.72;7354203;19;19986;-64
2023/04/03 08:08:42;;;;;;;;;;;;;;;9.38;74.93;102648.75;7356357;19;19951;-64
2023/04/03 08:11:10;;;;;;;;;;;;;;;10.10;71.57;102645.63;7356752;19;20480;-63
2023/04/03 08:13:37;;;;;;;;;;;;;;;11.00;69.16;102655.97;7355513;19;20006;-65
2023/04/03 08:16:12;;;;;;;;;;;;;;;11.36;65.36;102657.72;7353446;19;19986;-64
2023/04/03 08:18:40;;;;;;;;;;;;;;;11.25;64.75;102654.19;7354934;19;20468;-65
2023/04/03 08:21:08;;;;;;;;;;;;;;;11.04;65.08;102649.50;7358193;19;20407;-63
2023/04/03 08:23:35;;;;;;;;;;;;;;;10.86;66.44;102653.47;7353570;19;19925;-65
2023/04/03 08:26:12;;;;;;;;;;;;;;;10.68;68.47;102652.97;7351672;19;19926;-65
2023/04/03 08:28:39;;;;;;;;;;;;;;;10.47;68.03;102651.84;7356553;19;19939;-65
2023/04/03 08:31:07;;;;;;;;;;;;;;;10.31;68.63;102659.09;7352662;19;19923;-64
2023/04/03 08:33:36;;;;;;;;;;;;;;;10.18;68.99;102653.00;7349012;19;19926;-65
2023/04/03 08:36:05;;;;;;;;;;;;;;;10.13;70.19;102657.72;7350674;19;19919;-66
2023/04/03 08:38:32;;;;;;;;;;;;;;;10.08;69.95;102652.78;7352366;19;19927;-66
2023/04/03 08:41:04;;;;;;;;;;;;;;;10.07;70.82;102652.88;7357110;19;19945;-64
2023/04/03 08:43:37;;;;;;;;;;;;;;;10.04;71.67;102659.19;7353699;19;19919;-65
2023/04/03 08:46:06;;;;;;;;;;;;;;;10.04;70.87;102648.69;7351101;19;19944;-64
2023/04/03 08:48:36;;;;;;;;;;;;;;;10.07;71.08;102648.44;7351687;19;19921;-66
2023/04/03 08:51:05;;;;;;;;;;;;;;;10.17;72.38;102646.06;7353265;19;19998;-65
2023/04/03 08:53:39;;;;;;;;;;;;;;;10.26;72.02;102650.69;7352635;19;19919;-65
2023/04/03 08:56:08;;;;;;;;;;;;;;;10.41;71.47;102656.72;7349817;19;19934;-64
2023/04/03 08:58:42;;;;;;;;;;;;;;;10.56;70.55;102658.28;7353675;19;19994;-63
2023/04/03 09:01:19;;;;;;;;;;;;;;;10.59;70.88;102661.53;7350749;19;19995;-64
2023/04/03 09:03:46;;;;;;;;;;;;;;;10.65;71.00;102652.34;7350977;19;19922;-64
2023/04/03 09:06:13;;;;;;;;;;;;;;;10.65;70.39;102653.22;7350312;19;19914;-65
2023/04/03 09:08:44;;;;;;;;;;;;;;;10.67;71.28;102655.69;7354359;19;19986;-65
2023/04/03 09:11:15;;;;;;;;;;;;;;;10.74;71.15;102649.06;7355779;19;19923;-64
2023/04/03 09:13:54;;;;;;;;;;;;;;;10.75;70.16;102645.50;7352913;19;19940;-64
2023/04/03 09:16:21;;;;;;;;;;;;;;;10.75;69.48;102639.38;7351466;19;20591;-65
2023/04/03 09:18:53;;;;;;;;;;;;;;;10.81;69.51;102645.06;7349430;19;19919;-64
2023/04/03 09:21:27;;;;;;;;;;;;;;;10.81;69.14;102646.84;7354560;19;20516;-64
2023/04/03 09:23:57;;;;;;;;;;;;;;;10.84;68.46;102642.19;7353342;19;19930;-64
2023/04/03 09:26:29;;;;;;;;;;;;;;;10.86;68.09;102639.47;7350806;19;19919;-65
2023/04/03 09:28:59;;;;;;;;;;;;;;;10.86;67.81;102642.09;7354603;19;20427;-64
2023/04/03 09:31:29;;;;;;;;;;;;;;;10.89;66.63;102640.06;7353530;19;19921;-64
2023/04/03 09:33:59;;;;;;;;;;;;;;;10.93;67.09;102631.00;7347925;19;19990;-65
2023/04/03 09:36:36;;;;;;;;;;;;;;;10.95;67.70;102634.38;7348711;19;19978;-64
2023/04/03 09:39:04;;;;;;;;;;;;;;;10.96;67.41;102636.06;7351381;19;21224;-65
2023/04/03 09:41:33;;;;;;;;;;;;;;;11.03;66.52;102636.44;7351818;19;20347;-64
2023/04/03 09:44:00;;;;;;;;;;;;;;;11.12;65.29;102630.53;7352217;19;19982;-67
2023/04/03 09:46:29;;;;;;;;;;;;;;;11.19;63.75;102639.66;7347008;19;20364;-64
2023/04/03 09:48:58;;;;;;;;;;;;;;;11.22;63.19;102631.53;7351518;19;19919;-65
2023/04/03 09:51:35;;;;;;;;;;;;;;;11.25;63.75;102636.56;7354886;19;19922;-64
2023/04/03 09:54:22;;;;;;;;;;;;;;;11.26;61.80;102637.41;7350511;19;21956;-63
2023/04/03 09:56:51;;;;;;;;;;;;;;;11.32;62.94;102631.72;7352628;19;19921;-63
2023/04/03 09:59:18;;;;;;;;;;;;;;;11.39;61.71;102638.19;7352630;19;19921;-64
2023/04/03 10:01:55;;;;;;;;;;;;;;;11.42;61.79;102649.38;7353829;19;19942;-65
2023/04/03 10:04:22;;;;;;;;;;;;;;;11.46;62.17;102636.78;7347552;19;19995;-63
2023/04/03 10:06:51;;;;;;;;;;;;;;;11.52;62.42;102637.19;7347359;19;20285;-64
2023/04/03 10:09:21;;;;;;;;;;;;;;;11.53;61.63;102632.72;7350040;19;19922;-65
2023/04/03 10:11:58;;;;;;;;;;;;;;;11.52;62.51;102629.28;7353852;19;19923;-66
2023/04/03 10:14:26;;;;;;;;;;;;;;;11.54;62.13;102627.34;7351949;19;19949;-64
2023/04/03 10:17:03;;;;;;;;;;;;;;;11.49;62.16;102632.13;7348878;19;20400;-64
2023/04/03 10:19:34;;;;;;;;;;;;;;;11.44;61.83;102628.16;7349083;19;20523;-65
2023/04/03 10:22:12;;;;;;;;;;;;;;;11.42;62.29;102628.28;7350099;19;19915;-67
2023/04/03 10:24:47;;;;;;;;;;;;;;;11.46;62.47;102632.38;7351456;19;19957;-64
2023/04/03 10:27:24;;;;;;;;;;;;;;;11.52;64.18;102633.72;7349670;19;20341;-65
2023/04/03 10:29:57;;;;;;;;;;;;;;;11.58;61.81;102634.06;7351248;19;19983;-64
2023/04/03 10:32:33;;;;;;;;;;;;;;;11.62;60.72;102639.13;7350752;19;19979;-65
2023/04/03 10:35:04;;;;;;;;;;;;;;;11.62;59.92;102626.78;7345430;19;19926;-65
2023/04/03 10:37:41;;;;;;;;;;;;;;;11.61;60.45;102634.81;7348055;19;19923;-64
2023/04/03 10:40:17;;;;;;;;;;;;;;;11.65;62.79;102633.63;7350469;19;19946;-64
2023/04/03 10:42:47;;;;;;;;;;;;;;;11.69;62.27;102635.06;7352475;19;20031;-65
2023/04/03 10:45:26;;;;;;;;;;;;;;;11.77;60.99;102624.81;7349125;19;20348;-64
2023/04/03 10:48:03;;;;;;;;;;;;;;;11.88;60.86;102627.50;7351200;19;19911;-65
2023/04/03 10:50:31;;;;;;;;;;;;;;;11.95;60.16;102624.25;7359220;19;19935;-64
2023/04/03 10:52:58;;;;;;;;;;;;;;;11.99;60.87;102619.59;7353705;19;20744;-65
2023/04/03 10:55:26;;;;;;;;;;;;;;;12.03;59.98;102615.78;7357635;19;20765;-63
2023/04/03 10:57:56;;;;;;;;;;;;;;;12.05;59.72;102624.38;7358139;19;19923;-65
2023/04/03 11:00:30;;;;;;;;;;;;;;;12.13;61.81;102621.19;7360017;19;19914;-64
2023/04/03 11:03:00;;;;;;;;;;;;;;;12.18;60.32;102617.22;7357337;19;20265;-64
2023/04/03 11:05:29;;;;;;;;;;;;;;;12.16;59.61;102620.94;7355068;19;21798;-62
2023/04/03 11:07:59;;;;;;;;;;;;;;;12.20;58.60;102617.09;7356681;19;19926;-64
2023/04/03 11:10:36;;;;;;;;;;;;;;;12.19;59.06;102616.25;7361389;19;20318;-63
2023/04/03 11:13:11;;;;;;;;;;;;;;;12.20;57.46;102612.66;7364255;19;20336;-63
2023/04/03 11:15:38;;;;;;;;;;;;;;;12.23;57.23;102625.63;7355350;19;19973;-65
2023/04/03 11:18:11;;;;;;;;;;;;;;;12.33;56.56;102612.56;7351870;19;19922;-64
2023/04/03 11:20:41;;;;;;;;;;;;;;;12.45;55.12;102603.66;7360146;19;19926;-63
2023/04/03 11:23:19;;;;;;;;;;;;;;;12.57;54.93;102600.06;7361098;19;19919;-64
2023/04/03 11:25:49;;;;;;;;;;;;;;;12.68;54.28;102593.91;7357435;19;20843;-63
2023/04/03 11:28:16;;;;;;;;;;;;;;;12.79;52.81;102604.47;7354357;19;19966;-63
2023/04/03 11:30:47;;;;;;;;;;;;;;;12.84;51.95;102599.66;7358542;19;19946;-64
2023/04/03 11:33:23;;;;;;;;;;;;;;;12.86;51.29;102592.44;7354877;19;20024;-63
2023/04/03 11:35:53;;;;;;;;;;;;;;;12.81;51.42;102592.81;7353409;19;19922;-63
2023/04/03 11:38:25;;;;;;;;;;;;;;;12.75;51.42;102590.66;7354935;19;19915;-64
2023/04/03 11:40:55;;;;;;;;;;;;;;;12.78;50.69;102597.50;7357939;19;20280;-64
2023/04/03 11:43:22;;;;;;;;;;;;;;;12.74;51.17;102590.78;7358339;19;19919;-66
2023/04/03 11:45:50;;;;;;;;;;;;;;;12.72;50.89;102582.13;7354084;19;19917;-63
2023/04/03 11:48:18;;;;;;;;;;;;;;;12.59;50.50;102584.94;7355138;19;19926;-64
2023/04/03 11:50:51;;;;;;;;;;;;;;;12.57;50.57;102583.38;7354380;19;19918;-64
2023/04/03 11:53:18;;;;;;;;;;;;;;;12.57;50.32;102578.09;7355598;19;19922;-63
2023/04/03 11:55:45;;;;;;;;;;;;;;;12.54;50.84;102580.97;7354465;19;20509;-63
2023/04/03 11:58:14;;;;;;;;;;;;;;;12.52;50.84;102572.34;7356585;19;19983;-64
2023/04/03 12:00:42;;;;;;;;;;;;;;;12.52;50.84;102570.53;7357796;19;20400;-65
2023/04/03 12:03:19;;;;;;;;;;;;;;;12.55;50.40;102572.06;7354030;19;19915;-65
2023/04/03 12:05:46;;;;;;;;;;;;;;;12.47;51.29;102563.94;7351209;19;19927;-64
2023/04/03 12:08:24;;;;;;;;;;;;;;;12.49;50.91;102564.66;7352060;19;19956;-65
2023/04/03 12:11:00;;;;;;;;;;;;;;;12.48;50.72;102560.34;7358188;19;19942;-63
2023/04/03 12:13:28;;;;;;;;;;;;;;;12.45;50.07;102556.13;7359173;19;20038;-64
2023/04/03 12:15:56;;;;;;;;;;;;;;;12.45;50.73;102561.41;7354877;19;21246;-63
2023/04/03 12:18:31;;;;;;;;;;;;;;;12.49;50.02;102543.56;7353992;19;21295;-63
2023/04/03 12:20:59;;;;;;;;;;;;;;;12.44;50.55;102546.56;7357116;19;20343;-64
2023/04/03 12:23:29;;;;;;;;;;;;;;;12.40;51.08;102558.28;7356295;19;19925;-64
2023/04/03 12:26:02;;;;;;;;;;;;;;;12.42;50.19;102557.22;7351679;19;20262;-64
2023/04/03 12:28:35;;;;;;;;;;;;;;;12.36;50.46;102546.31;7354695;19;20280;-65
2023/04/03 12:31:04;;;;;;;;;;;;;;;12.36;51.79;102541.03;7355802;19;19964;-64
2023/04/03 12:33:40;;;;;;;;;;;;;;;12.40;50.13;102539.81;7354920;19;19938;-67
2023/04/03 12:36:12;;;;;;;;;;;;;;;12.43;49.16;102550.16;7352819;19;19935;-64
2023/04/03 12:38:49;;;;;;;;;;;;;;;12.42;48.77;102541.38;7353383;19;19919;-64
2023/04/03 12:41:17;;;;;;;;;;;;;;;12.40;48.27;102538.03;7356225;19;19911;-64
2023/04/03 12:43:54;;;;;;;;;;;;;;;12.41;48.85;102537.06;7355520;19;19930;-65
2023/04/03 12:46:22;;;;;;;;;;;;;;;12.33;48.62;102536.84;7352740;19;20001;-64
2023/04/03 12:48:51;;;;;;;;;;;;;;;12.32;49.20;102535.16;7354016;19;19943;-64
2023/04/03 12:51:20;;;;;;;;;;;;;;;12.33;49.68;102531.56;7355259;19;20698;-63